Time;durP1;ratioP1;P1;durP2;ratioP2;P2;SDS_P1;SDS_P2;PMS_P1;PMS_P2;Temp;Humidity;BMP_temperature;BMP_pressure;BME280_temperature;BME280_humidity;BME280_pressure;Samples;Min_cycle;Max_cycle;Signal;HPM_P1;HPM_P2
2022/09/02 00:01:31;;;;;;;5.12;4.03;;;;;;;16.74;86.78;95530.73;1737286;82;21579;-76
2022/09/02 00:04:04;;;;;;;8.00;4.50;;;;;;;16.76;86.78;95535.54;1737393;83;21042;-77
2022/09/02 00:06:31;;;;;;;6.47;4.70;;;;;;;16.76;86.95;95523.08;1738045;83;21437;-77
2022/09/02 00:09:00;;;;;;;6.12;4.33;;;;;;;16.75;86.92;95534.65;1737611;83;21070;-77
2022/09/02 00:11:30;;;;;;;5.35;3.85;;;;;;;16.74;86.76;95530.73;1737421;83;21576;-77
2022/09/02 00:13:59;;;;;;;5.53;4.30;;;;;;;16.71;86.68;95527.74;1711105;83;21507;-77
2022/09/02 00:16:26;;;;;;;5.08;4.17;;;;;;;16.72;86.80;95523.27;1737066;83;21098;-75
2022/09/02 00:18:55;;;;;;;6.50;4.40;;;;;;;16.72;87.00;95520.61;1706412;84;21062;-77
2022/09/02 00:21:23;;;;;;;9.45;4.35;;;;;;;16.73;86.92;95518.33;1706786;84;21663;-76
2022/09/02 00:23:50;;;;;;;5.78;4.42;;;;;;;16.73;87.01;95523.66;1706560;84;21045;-76
2022/09/02 00:26:17;;;;;;;5.47;4.87;;;;;;;16.74;87.03;95518.28;1706796;83;21067;-76
2022/09/02 00:28:45;;;;;;;6.17;4.30;;;;;;;16.77;87.11;95521.27;1706797;84;21023;-77
2022/09/02 00:31:13;;;;;;;4.92;4.40;;;;;;;16.73;86.65;95518.33;1706700;84;21043;-77
2022/09/02 00:33:40;;;;;;;6.42;4.60;;;;;;;16.66;87.14;95519.95;1707034;84;21058;-77
2022/09/02 00:36:08;;;;;;;4.90;4.40;;;;;;;16.65;87.15;95510.67;1706718;84;21023;-77
2022/09/02 00:38:36;;;;;;;5.75;4.17;;;;;;;16.63;87.26;95505.44;1707029;84;20991;-76
2022/09/02 00:41:07;;;;;;;8.08;4.47;;;;;;;16.65;87.00;95512.87;1706945;84;20995;-77
2022/09/02 00:43:48;;;;;;;5.47;4.97;;;;;;;16.64;87.27;95503.16;1706842;83;21010;-77
2022/09/02 00:46:20;;;;;;;5.90;4.22;;;;;;;16.62;87.07;95513.01;1706422;84;21091;-76
2022/09/02 00:48:58;;;;;;;6.10;4.15;;;;;;;16.56;87.49;95515.09;1706960;84;21003;-77
2022/09/02 00:51:27;;;;;;;5.15;4.17;;;;;;;16.50;87.54;95508.20;1737429;83;21033;-76
2022/09/02 00:53:54;;;;;;;5.35;4.05;;;;;;;16.50;87.56;95510.88;1737701;82;21039;-77
2022/09/02 00:56:26;;;;;;;4.70;4.30;;;;;;;16.55;88.06;95510.20;1701928;84;21430;-76
2022/09/02 00:58:54;;;;;;;4.37;3.98;;;;;;;16.58;87.71;95508.77;1724479;83;21547;-76
2022/09/02 01:01:22;;;;;;;6.72;4.40;;;;;;;16.56;87.59;95503.97;1724309;83;21062;-77
2022/09/02 01:03:50;;;;;;;5.70;4.03;;;;;;;16.58;87.68;95507.88;1724531;82;21484;-76
2022/09/02 01:06:23;;;;;;;6.80;4.12;;;;;;;16.55;87.55;95506.21;1724396;82;21006;-77
2022/09/02 01:08:53;;;;;;;;;;;;;;;16.47;87.69;95504.36;1726755;83;21081;-77
2022/09/02 01:11:21;;;;;;;5.30;4.37;;;;;;;16.40;87.87;95507.77;1724699;82;20105;-76
2022/09/02 01:13:48;;;;;;;6.33;4.42;;;;;;;16.42;88.19;95507.20;1724249;82;21102;-76
2022/09/02 01:16:27;;;;;;;7.72;3.80;;;;;;;16.44;87.97;95505.83;1724397;82;21047;-76
2022/09/02 01:18:57;;;;;;;5.65;4.00;;;;;;;16.43;87.88;95508.10;1723205;83;21037;-76
2022/09/02 01:21:24;;;;;;;8.50;4.45;;;;;;;16.37;87.78;95509.20;1724387;83;20983;-77
2022/09/02 01:23:53;;;;;;;5.55;4.10;;;;;;;16.32;87.87;95508.53;1724232;83;21007;-76
2022/09/02 01:26:20;;;;;;;4.62;4.12;;;;;;;16.36;88.29;95506.63;1724439;83;21038;-76
2022/09/02 01:28:47;;;;;;;7.42;3.60;;;;;;;16.40;88.34;95506.44;1724136;83;21098;-77
2022/09/02 01:31:14;;;;;;;5.78;3.50;;;;;;;16.46;88.00;95502.64;1724333;83;21046;-77
2022/09/02 01:33:41;;;;;;;5.47;3.20;;;;;;;16.39;87.71;95513.14;1724366;83;21026;-77
2022/09/02 01:36:08;;;;;;;4.03;3.42;;;;;;;16.28;87.84;95503.40;1724543;83;20995;-77
2022/09/02 01:38:35;;;;;;;4.20;3.30;;;;;;;16.25;87.92;95500.88;1724552;83;21002;-76
2022/09/02 01:41:02;;;;;;;3.90;3.27;;;;;;;16.24;88.18;95508.00;1724321;82;21014;-76
2022/09/02 01:43:29;;;;;;;9.80;3.50;;;;;;;16.21;88.06;95514.80;1724262;83;20988;-76
2022/09/02 01:45:58;;;;;;;3.85;3.00;;;;;;;16.23;88.43;95514.27;1724401;82;21039;-76
2022/09/02 01:48:27;;;;;;;3.75;3.45;;;;;;;16.26;88.43;95514.13;1724377;83;21027;-76
2022/09/02 01:50:58;;;;;;;8.78;3.50;;;;;;;16.27;88.37;95505.67;1724359;83;21091;-77
2022/09/02 01:53:26;;;;;;;3.72;3.10;;;;;;;16.26;88.06;95510.14;1724378;83;21019;-77
2022/09/02 01:55:54;;;;;;;3.77;2.60;;;;;;;16.26;88.33;95512.80;1733200;83;21512;-77
2022/09/02 01:58:22;;;;;;;4.35;2.75;;;;;;;16.20;88.07;95513.94;1737599;82;21559;-77
2022/09/02 02:00:49;;;;;;;3.02;2.72;;;;;;;16.16;88.18;95511.45;1737522;83;21002;-77
2022/09/02 02:03:16;;;;;;;3.52;2.60;;;;;;;16.11;88.21;95510.31;1737619;83;21046;-77
2022/09/02 02:05:43;;;;;;;2.83;2.42;;;;;;;16.05;88.51;95513.69;1710569;83;21047;-77
2022/09/02 02:08:12;;;;;;;3.00;2.45;;;;;;;16.04;88.44;95513.30;1737848;81;21066;-77
2022/09/02 02:10:42;;;;;;;3.25;2.72;;;;;;;16.03;88.45;95508.44;1690816;84;21058;-77
2022/09/02 02:13:10;;;;;;;2.95;2.65;;;;;;;16.00;88.52;95512.53;1706779;84;21026;-77
2022/09/02 02:15:41;;;;;;;2.55;2.33;;;;;;;16.00;88.87;95504.11;1706679;84;21042;-77
2022/09/02 02:18:10;;;;;;;3.60;2.75;;;;;;;15.97;88.50;95513.53;1737756;83;21030;-77
2022/09/02 02:20:37;;;;;;;2.90;2.70;;;;;;;15.94;88.71;95514.13;1737675;83;20979;-77
2022/09/02 02:23:06;;;;;;;3.20;2.90;;;;;;;15.92;88.54;95511.52;1706637;84;21038;-77
2022/09/02 02:25:34;;;;;;;3.67;2.58;;;;;;;15.95;88.84;95510.53;1737692;83;21535;-77
2022/09/02 02:28:02;;;;;;;4.45;2.87;;;;;;;16.00;89.08;95508.11;1737358;82;21011;-77
2022/09/02 02:30:30;;;;;;;3.85;2.72;;;;;;;16.00;88.85;95509.44;1737510;83;21457;-76
2022/09/02 02:32:57;;;;;;;3.15;2.60;;;;;;;16.01;88.65;95509.83;1737453;83;21022;-77
2022/09/02 02:35:24;;;;;;;4.10;2.55;;;;;;;15.96;88.53;95506.95;1710568;83;21456;-77
2022/09/02 02:37:52;;;;;;;2.45;2.10;;;;;;;15.95;88.72;95506.54;1737560;82;21476;-77
2022/09/02 02:40:22;;;;;;;2.55;2.35;;;;;;;15.97;88.70;95503.36;1737283;83;21069;-77
2022/09/02 02:42:54;;;;;;;1.90;1.80;;;;;;;16.00;88.60;95501.89;1737595;83;21022;-77
2022/09/02 02:45:24;;;;;;;1.92;1.75;;;;;;;16.00;88.44;95503.22;1737561;83;21042;-77
2022/09/02 02:47:51;;;;;;;3.05;1.95;;;;;;;15.93;87.89;95499.97;1737457;83;21007;-77
2022/09/02 02:50:21;;;;;;;2.00;1.87;;;;;;;15.89;88.05;95505.47;1737568;82;21102;-77
2022/09/02 02:52:50;;;;;;;2.95;1.80;;;;;;;15.85;88.01;95495.44;1737488;82;21007;-77
2022/09/02 02:55:18;;;;;;;5.58;2.00;;;;;;;15.77;88.29;95500.17;1702929;84;21031;-77
2022/09/02 02:57:45;;;;;;;3.30;2.25;;;;;;;15.72;88.28;95500.83;1694190;84;21056;-76
2022/09/02 03:00:21;;;;;;;2.35;1.95;;;;;;;15.66;88.66;95505.91;1694389;84;21117;-77
2022/09/02 03:02:49;;;;;;;3.42;1.98;;;;;;;15.55;88.84;95504.15;1693522;85;21106;-77
2022/09/02 03:05:17;;;;;;;3.02;2.10;;;;;;;15.55;88.87;95498.83;1694104;84;21016;-76
2022/09/02 03:07:45;;;;;;;3.22;2.40;;;;;;;15.55;88.92;95501.02;1694245;84;21027;-77
2022/09/02 03:10:12;;;;;;;1.80;1.70;;;;;;;15.58;89.05;95504.87;1694308;84;21023;-77
2022/09/02 03:12:40;;;;;;;2.25;1.75;;;;;;;15.58;89.02;95502.22;1694119;84;21024;-77
2022/09/02 03:15:10;;;;;;;7.70;2.02;;;;;;;15.53;88.89;95503.34;1716239;84;21536;-77
2022/09/02 03:17:38;;;;;;;2.30;1.85;;;;;;;15.47;88.81;95501.79;1716444;83;21061;-77
2022/09/02 03:20:07;;;;;;;4.67;1.95;;;;;;;15.46;89.56;95504.50;1716218;83;21067;-77
2022/09/02 03:22:40;;;;;;;3.37;1.80;;;;;;;15.49;89.27;95503.04;1716491;82;21561;-77
2022/09/02 03:25:08;;;;;;;2.58;1.70;;;;;;;15.55;89.34;95506.80;1716065;82;21071;-76
2022/09/02 03:27:37;;;;;;;1.72;1.62;;;;;;;15.57;88.92;95503.16;1716370;84;21015;-77
2022/09/02 03:30:09;;;;;;;4.90;1.65;;;;;;;15.53;88.72;95506.86;1716353;83;21481;-77
2022/09/02 03:32:37;;;;;;;1.77;1.60;;;;;;;15.52;88.80;95509.13;1716511;83;21541;-77
2022/09/02 03:35:08;;;;;;;3.95;1.82;;;;;;;15.52;88.84;95510.45;1716258;84;21039;-77
2022/09/02 03:37:37;;;;;;;1.87;1.67;;;;;;;15.50;88.81;95507.45;1716697;83;21552;-77
2022/09/02 03:40:09;;;;;;;1.90;1.72;;;;;;;15.49;88.87;95515.01;1716105;83;21364;-77
2022/09/02 03:42:36;;;;;;;2.70;1.77;;;;;;;15.46;88.69;95514.66;1716715;83;21027;-77
2022/09/02 03:45:06;;;;;;;1.45;1.35;;;;;;;15.42;88.79;95508.19;1716071;84;21086;-77
2022/09/02 03:47:34;;;;;;;2.25;1.40;;;;;;;15.41;88.82;95521.09;1716706;83;21079;-76
2022/09/02 03:50:05;;;;;;;2.22;1.40;;;;;;;15.39;88.78;95515.82;1716338;84;21027;-76
2022/09/02 03:52:32;;;;;;;1.57;1.42;;;;;;;15.34;88.84;95513.34;1716554;84;21007;-77
2022/09/02 03:54:59;;;;;;;3.87;1.85;;;;;;;15.30;88.98;95520.19;1716840;83;21027;-76
2022/09/02 03:57:27;;;;;;;2.90;1.60;;;;;;;15.23;89.10;95526.19;1724523;82;20979;-77
2022/09/02 03:59:54;;;;;;;1.65;1.55;;;;;;;15.24;89.16;95525.25;1724381;83;21023;-77
2022/09/02 04:02:21;;;;;;;1.75;1.50;;;;;;;15.23;89.15;95527.98;1723624;83;21572;-77
2022/09/02 04:04:48;;;;;;;1.92;1.50;;;;;;;15.20;89.01;95526.78;1723966;83;21028;-78
2022/09/02 04:07:15;;;;;;;2.47;1.40;;;;;;;15.14;88.98;95526.52;1748628;82;21027;-77
2022/09/02 04:09:43;;;;;;;2.85;1.42;;;;;;;15.11;89.14;95524.84;1724265;83;21082;-77
2022/09/02 04:12:10;;;;;;;2.75;1.45;;;;;;;15.11;89.31;95527.97;1724232;83;21067;-78
2022/09/02 04:14:37;;;;;;;3.42;1.45;;;;;;;15.13;89.25;95526.98;1724280;82;21027;-78
2022/09/02 04:17:04;;;;;;;3.45;1.50;;;;;;;15.15;89.25;95530.93;1724249;83;21469;-78
2022/09/02 04:19:30;;;;;;;1.57;1.45;;;;;;;15.09;88.94;95529.38;1724514;82;20987;-78
2022/09/02 04:21:57;;;;;;;2.25;1.35;;;;;;;15.08;89.05;95538.25;1724229;82;21015;-78
2022/09/02 04:24:25;;;;;;;2.90;1.35;;;;;;;15.07;89.05;95531.69;1724451;82;21030;-78
2022/09/02 04:26:51;;;;;;;1.57;1.30;;;;;;;15.08;89.19;95536.06;1724151;83;21027;-78
2022/09/02 04:29:18;;;;;;;1.60;1.50;;;;;;;15.06;89.26;95537.91;1724351;83;21047;-78
2022/09/02 04:31:44;;;;;;;1.50;1.40;;;;;;;15.08;89.34;95539.58;1724202;83;21009;-78
2022/09/02 04:34:12;;;;;;;2.98;1.50;;;;;;;15.05;89.26;95538.84;1724245;83;21513;-78
2022/09/02 04:36:40;;;;;;;2.95;1.62;;;;;;;15.03;89.17;95534.91;1724588;82;21027;-78
2022/09/02 04:39:12;;;;;;;1.75;1.22;;;;;;;15.01;89.12;95543.85;1724312;82;21026;-79
2022/09/02 04:41:37;;;;;;;1.30;1.20;;;;;;;14.96;89.58;95535.19;1724252;82;21500;-78
2022/09/02 04:44:06;;;;;;;1.20;1.10;;;;;;;14.94;89.71;95537.89;1723786;82;21062;-79
2022/09/02 04:46:35;;;;;;;2.77;1.30;;;;;;;14.95;89.64;95538.31;1724441;81;21019;-78
2022/09/02 04:49:04;;;;;;;1.75;1.60;;;;;;;14.98;89.86;95543.50;1724385;83;21050;-78
2022/09/02 04:51:32;;;;;;;2.17;1.22;;;;;;;15.04;89.95;95545.06;1724011;83;21600;-78
2022/09/02 04:54:00;;;;;;;3.52;1.40;;;;;;;15.04;89.87;95539.75;1724384;83;21031;-78
2022/09/02 04:56:31;;;;;;;1.98;1.10;;;;;;;15.06;89.61;95540.09;1719980;82;21086;-78
2022/09/02 04:58:58;;;;;;;1.47;1.10;;;;;;;15.11;89.58;95547.91;1716337;84;21521;-77
2022/09/02 05:01:31;;;;;;;1.10;1.00;;;;;;;15.11;89.47;95545.24;1716213;84;21035;-71
2022/09/02 05:04:00;;;;;;;1.25;1.00;;;;;;;15.11;89.23;95543.45;1716148;84;21043;-79
2022/09/02 05:06:29;;;;;;;2.58;1.00;;;;;;;15.15;89.51;95545.08;1716457;84;21453;-78
2022/09/02 05:09:00;;;;;;;1.17;1.07;;;;;;;15.13;89.12;95542.94;1716408;83;21501;-78
2022/09/02 05:11:31;;;;;;;0.88;0.88;;;;;;;15.12;88.92;95541.69;1716277;84;20968;-78
2022/09/02 05:14:03;;;;;;;1.90;0.90;;;;;;;15.06;89.18;95540.09;1716631;83;21026;-78
2022/09/02 05:16:35;;;;;;;1.25;0.85;;;;;;;15.05;88.98;95542.36;1716560;84;21003;-78
2022/09/02 05:19:05;;;;;;;1.70;1.00;;;;;;;15.07;88.95;95543.17;1716489;83;21078;-78
2022/09/02 05:21:36;;;;;;;3.00;1.27;;;;;;;15.17;89.44;95542.81;1717239;82;21090;-78
2022/09/02 05:24:03;;;;;;;1.10;1.00;;;;;;;15.21;88.90;95541.78;1716460;83;21090;-78
2022/09/02 05:26:34;;;;;;;2.15;0.90;;;;;;;15.19;88.56;95541.83;1716177;84;20999;-78
2022/09/02 05:28:59;;;;;;;0.85;0.72;;;;;;;15.14;88.30;95540.70;1716727;82;21032;-78
2022/09/02 05:31:27;;;;;;;3.05;0.70;;;;;;;15.12;88.36;95541.69;1716394;84;21051;-78
2022/09/02 05:33:54;;;;;;;2.30;0.90;;;;;;;15.08;88.68;95540.91;1716208;84;21541;-78
2022/09/02 05:36:22;;;;;;;1.82;0.80;;;;;;;15.09;88.60;95542.66;1716424;83;21003;-78
2022/09/02 05:38:50;;;;;;;0.80;0.60;;;;;;;15.10;88.42;95544.85;1716528;83;21062;-78
2022/09/02 05:41:23;;;;;;;1.52;0.70;;;;;;;15.11;88.59;95541.27;1716463;84;21003;-78
2022/09/02 05:43:55;;;;;;;0.75;0.72;;;;;;;15.14;88.41;95538.48;1716443;83;21071;-78
2022/09/02 05:46:25;;;;;;;2.27;1.00;;;;;;;15.14;88.44;95542.47;1716281;83;21297;-78
2022/09/02 05:49:07;;;;;;;2.35;0.82;;;;;;;15.18;88.44;95541.91;1716452;84;21019;-78
2022/09/02 05:51:56;;;;;;;1.32;0.65;;;;;;;15.17;87.92;95542.81;1716638;82;21023;-78
2022/09/02 05:54:29;;;;;;;1.50;0.70;;;;;;;15.11;87.81;95534.62;1716876;82;21490;-78
2022/09/02 05:57:03;;;;;;;1.80;0.70;;;;;;;15.05;88.05;95534.39;1746154;82;21042;-78
2022/09/02 05:59:35;;;;;;;1.05;0.70;;;;;;;15.03;88.07;95531.38;1724343;83;20999;-78
2022/09/02 06:02:00;;;;;;;0.70;0.70;;;;;;;15.01;88.37;95535.41;1696280;83;21058;-77
2022/09/02 06:04:27;;;;;;;4.03;0.93;;;;;;;14.99;88.26;95538.58;1724437;83;21081;-78
2022/09/02 06:06:55;;;;;;;1.65;0.60;;;;;;;14.96;88.30;95536.05;1724622;82;20983;-78
2022/09/02 06:09:23;;;;;;;1.32;0.80;;;;;;;14.91;88.39;95534.02;1723872;83;21098;-78
2022/09/02 06:11:51;;;;;;;0.90;0.80;;;;;;;14.88;88.43;95539.45;1724503;83;20999;-78
2022/09/02 06:14:23;;;;;;;0.70;0.70;;;;;;;14.86;88.63;95537.30;1724723;81;21508;-78
2022/09/02 06:16:53;;;;;;;1.05;0.60;;;;;;;14.90;88.76;95537.61;1724415;82;20999;-78
2022/09/02 06:19:24;;;;;;;2.17;0.80;;;;;;;14.91;88.73;95534.87;1725200;82;21026;-78
2022/09/02 06:21:53;;;;;;;0.50;0.50;;;;;;;14.99;88.67;95538.58;1724267;83;21047;-78
2022/09/02 06:24:22;;;;;;;0.80;0.80;;;;;;;14.98;88.42;95536.86;1749071;81;21031;-78
2022/09/02 06:26:50;;;;;;;0.47;0.42;;;;;;;15.02;88.60;95542.92;1724568;82;21003;-78
2022/09/02 06:29:16;;;;;;;0.85;0.85;;;;;;;15.00;88.22;95536.35;1724001;83;21039;-78
2022/09/02 06:31:46;;;;;;;0.60;0.60;;;;;;;15.01;87.83;95543.85;1724362;83;21074;-78
2022/09/02 06:34:15;;;;;;;1.70;0.68;;;;;;;15.01;87.94;95541.20;1724219;83;21536;-78
2022/09/02 06:36:46;;;;;;;0.57;0.57;;;;;;;15.03;88.16;95543.34;1724274;83;21042;-78
2022/09/02 06:39:16;;;;;;;1.57;0.68;;;;;;;15.05;87.84;95546.81;1724447;83;21031;-78
2022/09/02 06:41:45;;;;;;;0.45;0.45;;;;;;;15.00;87.75;95548.78;1724375;83;21062;-78
2022/09/02 06:44:14;;;;;;;1.00;0.57;;;;;;;15.03;88.20;95550.84;1724214;83;21094;-78
2022/09/02 06:46:46;;;;;;;0.57;0.40;;;;;;;15.05;88.12;95549.00;1724371;83;21014;-78
2022/09/02 06:49:15;;;;;;;0.60;0.60;;;;;;;15.08;87.84;95554.20;1724100;83;21557;-79
2022/09/02 06:51:48;;;;;;;0.40;0.40;;;;;;;15.08;87.89;95554.66;1724510;82;21026;-78
2022/09/02 06:54:19;;;;;;;1.42;0.90;;;;;;;15.09;87.79;95553.73;1724502;83;21089;-78
2022/09/02 06:56:49;;;;;;;1.20;0.50;;;;;;;15.09;87.94;95555.95;1724156;83;21082;-78
2022/09/02 06:59:18;;;;;;;0.42;0.42;;;;;;;15.11;87.87;95559.39;1724358;82;21062;-78
2022/09/02 07:01:48;;;;;;;0.50;0.40;;;;;;;15.13;87.72;95555.36;1724381;83;21023;-78
2022/09/02 07:07:05;;;;;;;1.20;0.60;;;;;;;15.22;87.74;95553.70;1724154;83;21101;-78
2022/09/02 07:09:34;;;;;;;0.40;0.40;;;;;;;15.28;87.90;95553.93;1724410;83;20995;-79
2022/09/02 07:12:04;;;;;;;0.88;0.60;;;;;;;15.28;87.32;95562.77;1725091;82;21038;-78
2022/09/02 07:14:39;;;;;;;0.65;0.40;;;;;;;15.24;87.21;95561.60;1724410;83;21054;-79
2022/09/02 07:17:09;;;;;;;1.57;0.30;;;;;;;15.21;87.21;95556.41;1724692;81;21038;-78
2022/09/02 07:19:37;;;;;;;0.80;0.30;;;;;;;15.26;87.44;95555.77;1724119;83;21027;-78
2022/09/02 07:22:05;;;;;;;0.23;0.23;;;;;;;15.27;87.30;95559.72;1724309;82;21063;-78
2022/09/02 07:24:33;;;;;;;0.55;0.35;;;;;;;15.24;86.69;95561.12;1724154;82;21030;-79
2022/09/02 07:27:00;;;;;;;1.15;0.40;;;;;;;15.18;86.73;95568.02;1724382;83;21087;-78
2022/09/02 07:29:27;;;;;;;2.25;0.40;;;;;;;15.17;87.10;95564.08;1724064;83;21509;-78
2022/09/02 07:31:54;;;;;;;0.47;0.30;;;;;;;15.15;86.81;95562.36;1723901;83;21078;-78
2022/09/02 07:34:22;;;;;;;0.40;0.40;;;;;;;15.15;87.00;95562.82;1724211;83;21576;-79
2022/09/02 07:36:51;;;;;;;1.12;0.62;;;;;;;15.18;87.01;95564.50;1724745;83;21043;-79
2022/09/02 07:39:19;;;;;;;0.42;0.35;;;;;;;15.19;87.05;95564.89;1724278;83;21026;-79
2022/09/02 07:41:50;;;;;;;1.00;0.30;;;;;;;15.18;87.16;95565.83;1724255;83;21075;-79
2022/09/02 07:44:20;;;;;;;0.65;0.47;;;;;;;15.21;87.37;95567.03;1724264;83;21038;-79
2022/09/02 07:46:47;;;;;;;0.40;0.40;;;;;;;15.23;87.42;95566.05;1724416;83;21023;-79
2022/09/02 07:49:15;;;;;;;0.57;0.30;;;;;;;15.24;86.96;95570.91;1724223;82;21074;-80
2022/09/02 07:51:47;;;;;;;2.37;0.20;;;;;;;15.23;86.97;95566.52;1724385;83;21007;-79
2022/09/02 07:54:17;;;;;;;;;;;;;;;15.22;86.77;95565.66;1726728;83;21023;-79
2022/09/02 07:56:44;;;;;;;0.30;0.30;;;;;;;15.20;87.05;95563.52;1721855;83;20121;-79
2022/09/02 07:59:11;;;;;;;0.65;0.20;;;;;;;15.18;86.85;95560.52;1716292;84;21063;-78
2022/09/02 08:01:42;;;;;;;1.55;0.80;;;;;;;15.19;87.10;95564.42;1740894;81;21000;-80
2022/09/02 08:04:08;;;;;;;4.70;1.52;;;;;;;15.21;87.06;95555.94;1716294;84;21513;-79
2022/09/02 08:06:36;;;;;;;5.62;1.90;;;;;;;15.22;87.23;95562.11;1716235;83;20996;-79
2022/09/02 08:09:10;;;;;;;0.35;0.30;;;;;;;15.26;87.43;95559.76;1716181;84;21058;-79
2022/09/02 08:11:43;;;;;;;0.20;0.20;;;;;;;15.26;87.26;95556.63;1716459;82;21028;-79
2022/09/02 08:14:13;;;;;;;0.20;0.20;;;;;;;15.29;87.20;95559.16;1716426;84;21532;-78
2022/09/02 08:16:40;;;;;;;0.20;0.20;;;;;;;15.30;86.96;95554.74;1716494;83;21006;-79
2022/09/02 08:19:07;;;;;;;0.10;0.10;;;;;;;15.32;87.03;95556.42;1716257;83;21043;-79
2022/09/02 08:21:35;;;;;;;0.20;0.20;;;;;;;15.33;86.87;95547.97;1716337;83;21489;-79
2022/09/02 08:24:02;;;;;;;1.02;0.50;;;;;;;15.39;86.74;95554.84;1716333;83;21027;-79
2022/09/02 08:26:30;;;;;;;0.80;0.20;;;;;;;15.45;87.14;95541.33;1716348;83;20991;-79
2022/09/02 08:28:57;;;;;;;0.93;0.42;;;;;;;15.48;86.79;95542.06;1715957;84;21062;-78
2022/09/02 08:31:24;;;;;;;0.47;0.30;;;;;;;15.49;86.57;95546.91;1716394;83;21588;-79
2022/09/02 08:33:51;;;;;;;2.33;0.60;;;;;;;15.48;86.86;95542.53;1715912;84;21004;-79
2022/09/02 08:36:19;;;;;;;0.50;0.40;;;;;;;15.55;87.06;95544.90;1716279;83;21027;-79
2022/09/02 08:38:46;;;;;;;0.30;0.30;;;;;;;15.58;86.51;95543.44;1716403;83;21573;-79
2022/09/02 08:41:26;;;;;;;0.75;0.28;;;;;;;15.55;86.55;95542.23;1716430;83;21493;-79
2022/09/02 08:43:59;;;;;;;2.40;0.85;;;;;;;15.60;86.77;95544.72;1716310;83;21047;-79
2022/09/02 08:46:30;;;;;;;5.30;1.30;;;;;;;15.65;86.46;95548.50;1716346;83;21476;-79
2022/09/02 08:49:03;;;;;;;1.25;0.30;;;;;;;15.68;86.68;95544.42;1716292;83;21549;-79
2022/09/02 08:51:50;;;;;;;0.42;0.30;;;;;;;15.66;86.25;95539.15;1716854;84;21477;-79
2022/09/02 08:54:54;;;;;;;0.88;0.30;;;;;;;15.71;86.60;95539.87;1716193;84;21035;-79
2022/09/02 08:57:24;;;;;;;0.60;0.30;;;;;;;15.75;86.46;95539.30;1719646;83;21588;-79
2022/09/02 08:59:51;;;;;;;0.30;0.30;;;;;;;15.75;86.40;95542.82;1724585;83;21465;-79
2022/09/02 09:02:55;;;;;;;0.42;0.28;;;;;;;15.79;86.22;95538.23;1724489;83;21010;-79
2022/09/02 09:05:46;;;;;;;0.50;0.30;;;;;;;15.74;85.75;95537.08;1724357;82;21078;-78
2022/09/02 09:08:30;;;;;;;0.57;0.40;;;;;;;15.76;86.37;95533.04;1702564;83;21406;-79
2022/09/02 09:11:14;;;;;;;2.40;0.50;;;;;;;15.79;85.99;95532.91;1724375;82;21027;-79
2022/09/02 09:14:21;;;;;;;0.40;0.40;;;;;;;15.77;85.96;95536.09;1724700;82;21549;-79
2022/09/02 09:17:01;;;;;;;3.22;0.50;;;;;;;15.77;86.29;95537.42;1724388;83;21015;-79
2022/09/02 09:19:45;;;;;;;0.50;0.50;;;;;;;15.82;86.17;95531.45;1724233;83;21015;-79
2022/09/02 09:22:17;;;;;;;0.50;0.40;;;;;;;15.82;86.03;95535.44;1724247;83;21043;-79
2022/09/02 09:24:50;;;;;;;0.40;0.40;;;;;;;15.76;85.76;95536.56;1724657;82;21051;-78
2022/09/02 09:27:20;;;;;;;0.65;0.47;;;;;;;15.77;86.39;95534.32;1724780;83;21513;-79
2022/09/02 09:29:49;;;;;;;1.55;0.57;;;;;;;15.82;86.16;95532.78;1724519;83;21006;-78
2022/09/02 09:32:24;;;;;;;1.05;0.65;;;;;;;15.78;85.80;95534.71;1724434;83;21070;-79
2022/09/02 09:34:56;;;;;;;2.70;0.75;;;;;;;15.75;86.17;95530.84;1695859;83;21022;-78
2022/09/02 09:37:38;;;;;;;0.80;0.80;;;;;;;15.75;86.55;95530.84;1724761;83;21069;-79
2022/09/02 09:40:26;;;;;;;2.35;0.70;;;;;;;15.82;86.76;95533.25;1724331;83;20999;-78
2022/09/02 09:43:09;;;;;;;0.90;0.90;;;;;;;15.81;86.40;95530.20;1723618;83;21441;-79
2022/09/02 09:45:42;;;;;;;0.95;0.80;;;;;;;15.82;86.40;95524.80;1724598;82;21512;-79
2022/09/02 09:48:29;;;;;;;1.07;0.93;;;;;;;15.86;86.63;95526.89;1724397;83;21057;-78
2022/09/02 09:51:01;;;;;;;1.42;1.10;;;;;;;15.94;86.79;95524.30;1724481;83;21066;-79
2022/09/02 09:53:32;;;;;;;0.80;0.80;;;;;;;15.97;86.82;95523.31;1724500;83;21142;-78
2022/09/02 09:56:07;;;;;;;1.35;0.98;;;;;;;15.96;86.31;95519.80;1724419;83;20986;-78
2022/09/02 09:58:42;;;;;;;1.17;0.80;;;;;;;15.93;86.57;95518.59;1717174;82;21040;-79
2022/09/02 10:01:31;;;;;;;1.05;0.95;;;;;;;15.84;86.63;95505.66;1716539;83;21002;-78
2022/09/02 10:04:10;;;;;;;3.22;1.00;;;;;;;15.84;86.75;95512.78;1716570;84;21504;-78
2022/09/02 10:06:43;;;;;;;0.75;0.75;;;;;;;15.88;87.18;95516.59;1716344;83;21003;-79
2022/09/02 10:09:35;;;;;;;1.52;0.93;;;;;;;15.88;87.18;95516.59;1716548;83;20983;-79
2022/09/02 10:12:09;;;;;;;0.72;0.72;;;;;;;15.90;87.18;95511.19;1716528;83;21498;-78
2022/09/02 10:14:43;;;;;;;0.95;0.72;;;;;;;15.96;87.36;95509.63;1716070;84;21553;-78
2022/09/02 10:17:41;;;;;;;2.07;0.80;;;;;;;16.06;87.34;95515.44;1716445;83;21031;-78
2022/09/02 10:20:26;;;;;;;0.80;0.80;;;;;;;16.07;86.83;95511.36;1716111;84;21496;-79
2022/09/02 10:23:18;;;;;;;0.80;0.80;;;;;;;16.08;86.80;95515.77;1716370;84;21019;-79
2022/09/02 10:25:52;;;;;;;0.78;0.70;;;;;;;16.12;87.11;95515.17;1717119;82;21039;-79
2022/09/02 10:28:37;;;;;;;1.05;0.80;;;;;;;16.11;86.37;95512.12;1716105;84;20984;-79
2022/09/02 10:31:31;;;;;;;2.05;0.78;;;;;;;16.14;86.53;95515.50;1716560;83;21019;-78
2022/09/02 10:34:12;;;;;;;2.08;0.75;;;;;;;16.17;86.61;95517.17;1716054;83;21036;-79
2022/09/02 10:36:53;;;;;;;0.60;0.60;;;;;;;16.12;86.17;95512.03;1716555;83;21070;-78
2022/09/02 10:39:51;;;;;;;1.32;0.78;;;;;;;16.11;86.33;95514.30;1716377;84;21027;-78
2022/09/02 10:42:47;;;;;;;0.93;0.85;;;;;;;16.08;86.04;95514.44;1716458;83;21051;-79
2022/09/02 10:45:34;;;;;;;0.78;0.70;;;;;;;16.06;86.07;95518.09;1654848;84;21066;-78
2022/09/02 10:48:12;;;;;;;0.82;0.60;;;;;;;15.98;85.74;95515.75;1714576;84;21031;-79
2022/09/02 10:50:47;;;;;;;0.80;0.75;;;;;;;15.93;86.41;95513.75;1716147;84;21015;-79
2022/09/02 10:53:47;;;;;;;1.15;0.70;;;;;;;15.82;86.16;95508.83;1716597;83;21064;-78
2022/09/02 10:56:28;;;;;;;0.85;0.70;;;;;;;15.81;86.44;95511.58;1716551;83;21023;-79
2022/09/02 10:59:12;;;;;;;0.80;0.68;;;;;;;15.82;86.95;95511.97;1723639;83;21036;-78
2022/09/02 11:01:47;;;;;;;0.80;0.60;;;;;;;15.86;86.66;95515.78;1716135;84;21063;-78
2022/09/02 11:04:29;;;;;;;0.68;0.60;;;;;;;15.82;86.56;95514.16;1716292;83;21025;-78
2022/09/02 11:06:57;;;;;;;0.60;0.60;;;;;;;15.74;86.54;95509.14;1716483;83;21011;-79
2022/09/02 11:09:33;;;;;;;0.62;0.60;;;;;;;15.73;87.17;95511.89;1686284;84;21039;-79
2022/09/02 11:12:26;;;;;;;0.68;0.68;;;;;;;15.76;87.11;95510.42;1716698;84;20988;-78
2022/09/02 11:15:10;;;;;;;1.12;0.60;;;;;;;15.79;87.27;95517.81;1716587;83;21386;-79
2022/09/02 11:17:45;;;;;;;0.53;0.53;;;;;;;15.83;87.22;95518.56;1716344;83;21036;-79
2022/09/02 11:20:29;;;;;;;0.82;0.70;;;;;;;15.80;86.86;95509.39;1716374;83;21019;-79
2022/09/02 11:23:21;;;;;;;0.70;0.70;;;;;;;15.83;86.83;95515.91;1716485;83;21011;-78
2022/09/02 11:26:15;;;;;;;0.98;0.50;;;;;;;15.80;86.61;95512.05;1716399;83;21083;-79
2022/09/02 11:28:54;;;;;;;;;;;;;;;15.86;86.97;95508.27;1717419;84;21034;-79
2022/09/02 11:31:35;;;;;;;1.00;0.70;;;;;;;15.90;86.89;95508.52;1716369;82;20419;-78
2022/09/02 11:34:33;;;;;;;0.60;0.60;;;;;;;15.93;86.86;95509.75;1716217;84;21018;-78
2022/09/02 11:37:10;;;;;;;0.57;0.57;;;;;;;15.92;86.51;95514.19;1715881;84;21035;-78
2022/09/02 11:39:44;;;;;;;0.47;0.47;;;;;;;15.93;86.39;95513.75;1716392;83;21049;-79
2022/09/02 11:42:49;;;;;;;0.68;0.50;;;;;;;15.91;86.23;95504.95;1716467;83;21488;-79
2022/09/02 11:45:47;;;;;;;0.93;0.60;;;;;;;15.89;86.08;95506.33;1715979;84;21027;-79
2022/09/02 11:48:41;;;;;;;0.45;0.45;;;;;;;15.94;86.82;95503.48;1716521;84;21031;-77
2022/09/02 11:51:39;;;;;;;1.15;0.70;;;;;;;15.94;86.22;95504.34;1714446;84;21497;-78
2022/09/02 11:54:11;;;;;;;0.95;0.65;;;;;;;15.92;86.73;95510.66;1715151;84;21028;-78
2022/09/02 11:56:45;;;;;;;0.40;0.40;;;;;;;15.94;86.81;95505.67;1716386;83;21015;-78
2022/09/02 11:59:25;;;;;;;0.55;0.55;;;;;;;15.91;86.41;95502.29;1716207;83;21077;-79
2022/09/02 12:01:54;;;;;;;0.37;0.37;;;;;;;15.90;86.25;95508.52;1712031;84;21039;-79